sensor_id;sensor_type;location;lat;lon;timestamp;temperature;humidity
32895;DHT22;19251;49.484;8.260;2023-12-29T00:02:50;13.80;22.70
32895;DHT22;19251;49.484;8.260;2023-12-29T00:07:52;13.80;22.80
32895;DHT22;19251;49.484;8.260;2023-12-29T00:12:54;13.80;22.90
32895;DHT22;19251;49.484;8.260;2023-12-29T00:17:56;13.70;22.80
32895;DHT22;19251;49.484;8.260;2023-12-29T00:22:58;13.70;22.90
32895;DHT22;19251;49.484;8.260;2023-12-29T00:28:00;13.60;22.90
32895;DHT22;19251;49.484;8.260;2023-12-29T00:33:04;13.60;23.00
32895;DHT22;19251;49.484;8.260;2023-12-29T00:38:07;13.50;23.10
32895;DHT22;19251;49.484;8.260;2023-12-29T00:43:09;13.50;23.10
32895;DHT22;19251;49.484;8.260;2023-12-29T00:48:11;13.50;23.20
32895;DHT22;19251;49.484;8.260;2023-12-29T00:53:14;13.50;22.90
32895;DHT22;19251;49.484;8.260;2023-12-29T00:58:16;13.40;22.30
32895;DHT22;19251;49.484;8.260;2023-12-29T01:03:18;13.40;22.10
32895;DHT22;19251;49.484;8.260;2023-12-29T01:13:27;13.40;22.00
32895;DHT22;19251;49.484;8.260;2023-12-29T01:18:29;13.40;22.10
32895;DHT22;19251;49.484;8.260;2023-12-29T01:23:31;13.40;22.20
32895;DHT22;19251;49.484;8.260;2023-12-29T01:28:34;13.50;22.50
32895;DHT22;19251;49.484;8.260;2023-12-29T01:33:36;13.50;22.60
32895;DHT22;19251;49.484;8.260;2023-12-29T01:38:38;13.50;22.50
32895;DHT22;19251;49.484;8.260;2023-12-29T01:48:58;13.40;22.50
32895;DHT22;19251;49.484;8.260;2023-12-29T01:54:01;13.40;22.50
32895;DHT22;19251;49.484;8.260;2023-12-29T01:59:03;13.40;22.50
32895;DHT22;19251;49.484;8.260;2023-12-29T02:04:16;13.30;22.40
32895;DHT22;19251;49.484;8.260;2023-12-29T02:09:19;13.40;22.50
32895;DHT22;19251;49.484;8.260;2023-12-29T02:14:21;13.30;22.40
32895;DHT22;19251;49.484;8.260;2023-12-29T02:19:25;13.30;22.30
32895;DHT22;19251;49.484;8.260;2023-12-29T02:24:31;13.20;21.90
32895;DHT22;19251;49.484;8.260;2023-12-29T02:29:34;13.30;21.90
32895;DHT22;19251;49.484;8.260;2023-12-29T02:34:37;13.20;21.80
32895;DHT22;19251;49.484;8.260;2023-12-29T02:44:43;13.20;21.70
32895;DHT22;19251;49.484;8.260;2023-12-29T02:49:45;13.20;21.50
32895;DHT22;19251;49.484;8.260;2023-12-29T02:54:47;13.20;21.30
32895;DHT22;19251;49.484;8.260;2023-12-29T02:59:49;13.10;21.10
32895;DHT22;19251;49.484;8.260;2023-12-29T03:04:51;13.20;20.90
32895;DHT22;19251;49.484;8.260;2023-12-29T03:09:53;13.30;21.00
32895;DHT22;19251;49.484;8.260;2023-12-29T03:14:56;13.30;20.80
32895;DHT22;19251;49.484;8.260;2023-12-29T03:19:58;13.40;20.70
32895;DHT22;19251;49.484;8.260;2023-12-29T03:25:01;13.40;20.60
32895;DHT22;19251;49.484;8.260;2023-12-29T03:30:04;13.40;20.30
32895;DHT22;19251;49.484;8.260;2023-12-29T03:35:07;13.50;20.30
32895;DHT22;19251;49.484;8.260;2023-12-29T03:40:09;13.50;20.20
32895;DHT22;19251;49.484;8.260;2023-12-29T03:45:12;13.50;20.20
32895;DHT22;19251;49.484;8.260;2023-12-29T03:50:16;13.60;20.20
32895;DHT22;19251;49.484;8.260;2023-12-29T03:55:18;13.60;20.20
32895;DHT22;19251;49.484;8.260;2023-12-29T04:00:20;13.60;20.00
32895;DHT22;19251;49.484;8.260;2023-12-29T04:05:22;13.60;19.90
32895;DHT22;19251;49.484;8.260;2023-12-29T04:10:24;13.60;19.70
32895;DHT22;19251;49.484;8.260;2023-12-29T04:15:26;13.60;19.70
32895;DHT22;19251;49.484;8.260;2023-12-29T04:20:28;13.60;19.70
32895;DHT22;19251;49.484;8.260;2023-12-29T04:25:30;13.60;19.40
32895;DHT22;19251;49.484;8.260;2023-12-29T04:30:32;13.60;19.10
32895;DHT22;19251;49.484;8.260;2023-12-29T04:40:37;13.50;18.90
32895;DHT22;19251;49.484;8.260;2023-12-29T04:45:40;13.40;18.90
32895;DHT22;19251;49.484;8.260;2023-12-29T04:50:42;13.40;18.90
32895;DHT22;19251;49.484;8.260;2023-12-29T04:55:45;13.40;19.00
32895;DHT22;19251;49.484;8.260;2023-12-29T05:00:47;13.40;19.00
32895;DHT22;19251;49.484;8.260;2023-12-29T05:05:49;13.40;19.10
32895;DHT22;19251;49.484;8.260;2023-12-29T05:10:51;13.30;19.10
32895;DHT22;19251;49.484;8.260;2023-12-29T05:15:53;13.30;19.30
32895;DHT22;19251;49.484;8.260;2023-12-29T05:20:55;13.20;19.40
32895;DHT22;19251;49.484;8.260;2023-12-29T05:31:00;13.30;19.60
32895;DHT22;19251;49.484;8.260;2023-12-29T05:36:06;13.30;19.60
32895;DHT22;19251;49.484;8.260;2023-12-29T05:41:11;13.30;19.60
32895;DHT22;19251;49.484;8.260;2023-12-29T05:46:14;13.30;19.60
32895;DHT22;19251;49.484;8.260;2023-12-29T05:51:17;13.30;19.60
32895;DHT22;19251;49.484;8.260;2023-12-29T05:56:19;13.30;19.60
32895;DHT22;19251;49.484;8.260;2023-12-29T06:01:23;13.30;19.60
32895;DHT22;19251;49.484;8.260;2023-12-29T06:06:26;13.30;19.70
32895;DHT22;19251;49.484;8.260;2023-12-29T06:11:28;13.40;19.80
32895;DHT22;19251;49.484;8.260;2023-12-29T06:16:30;13.60;20.00
32895;DHT22;19251;49.484;8.260;2023-12-29T06:21:39;13.40;19.70
32895;DHT22;19251;49.484;8.260;2023-12-29T06:26:42;13.60;19.80
32895;DHT22;19251;49.484;8.260;2023-12-29T06:31:45;13.50;19.50
32895;DHT22;19251;49.484;8.260;2023-12-29T06:36:48;13.50;19.40
32895;DHT22;19251;49.484;8.260;2023-12-29T06:41:50;13.50;19.40
32895;DHT22;19251;49.484;8.260;2023-12-29T06:46:52;13.60;19.20
32895;DHT22;19251;49.484;8.260;2023-12-29T06:56:57;13.70;19.10
32895;DHT22;19251;49.484;8.260;2023-12-29T07:01:59;13.70;19.00
32895;DHT22;19251;49.484;8.260;2023-12-29T07:07:02;13.70;18.80
32895;DHT22;19251;49.484;8.260;2023-12-29T07:12:04;13.80;18.60
32895;DHT22;19251;49.484;8.260;2023-12-29T07:17:09;13.70;18.20
32895;DHT22;19251;49.484;8.260;2023-12-29T07:22:12;13.70;18.00
32895;DHT22;19251;49.484;8.260;2023-12-29T07:27:14;13.80;18.00
32895;DHT22;19251;49.484;8.260;2023-12-29T07:32:16;13.80;18.00
32895;DHT22;19251;49.484;8.260;2023-12-29T07:37:18;13.90;18.10
32895;DHT22;19251;49.484;8.260;2023-12-29T07:42:21;13.90;18.20
32895;DHT22;19251;49.484;8.260;2023-12-29T07:47:23;13.90;18.10
32895;DHT22;19251;49.484;8.260;2023-12-29T07:57:28;14.00;18.00
32895;DHT22;19251;49.484;8.260;2023-12-29T08:02:30;14.00;17.90
32895;DHT22;19251;49.484;8.260;2023-12-29T08:07:32;14.00;17.90
32895;DHT22;19251;49.484;8.260;2023-12-29T08:12:34;14.00;18.00
32895;DHT22;19251;49.484;8.260;2023-12-29T08:17:37;14.20;18.00
32895;DHT22;19251;49.484;8.260;2023-12-29T08:22:40;14.10;17.80
32895;DHT22;19251;49.484;8.260;2023-12-29T08:37:47;14.20;17.80
32895;DHT22;19251;49.484;8.260;2023-12-29T08:42:49;14.30;17.50
32895;DHT22;19251;49.484;8.260;2023-12-29T08:47:52;14.30;17.50
32895;DHT22;19251;49.484;8.260;2023-12-29T08:52:54;14.30;17.50
32895;DHT22;19251;49.484;8.260;2023-12-29T09:03:00;14.40;17.40
32895;DHT22;19251;49.484;8.260;2023-12-29T09:08:02;14.50;17.40
32895;DHT22;19251;49.484;8.260;2023-12-29T09:13:04;14.50;17.20
32895;DHT22;19251;49.484;8.260;2023-12-29T09:23:09;14.60;17.10
32895;DHT22;19251;49.484;8.260;2023-12-29T09:33:14;14.60;16.70
32895;DHT22;19251;49.484;8.260;2023-12-29T09:38:17;14.60;17.00
32895;DHT22;19251;49.484;8.260;2023-12-29T09:43:20;14.50;16.80
32895;DHT22;19251;49.484;8.260;2023-12-29T09:48:22;14.70;16.80
32895;DHT22;19251;49.484;8.260;2023-12-29T09:53:28;14.70;16.80
32895;DHT22;19251;49.484;8.260;2023-12-29T09:58:32;14.80;16.90
32895;DHT22;19251;49.484;8.260;2023-12-29T10:03:34;14.80;16.90
32895;DHT22;19251;49.484;8.260;2023-12-29T10:08:37;14.80;16.80
32895;DHT22;19251;49.484;8.260;2023-12-29T10:13:39;14.80;16.60
32895;DHT22;19251;49.484;8.260;2023-12-29T10:24:22;14.80;16.20
32895;DHT22;19251;49.484;8.260;2023-12-29T10:29:27;14.80;16.10
32895;DHT22;19251;49.484;8.260;2023-12-29T10:34:30;14.80;16.00
32895;DHT22;19251;49.484;8.260;2023-12-29T10:39:34;14.90;15.90
32895;DHT22;19251;49.484;8.260;2023-12-29T10:44:37;14.90;16.00
32895;DHT22;19251;49.484;8.260;2023-12-29T10:49:39;15.00;15.70
32895;DHT22;19251;49.484;8.260;2023-12-29T10:54:43;15.00;15.40
32895;DHT22;19251;49.484;8.260;2023-12-29T10:59:51;15.00;14.90
32895;DHT22;19251;49.484;8.260;2023-12-29T11:05:06;15.10;14.70
32895;DHT22;19251;49.484;8.260;2023-12-29T11:10:09;15.20;14.40
32895;DHT22;19251;49.484;8.260;2023-12-29T11:15:11;15.20;14.50
32895;DHT22;19251;49.484;8.260;2023-12-29T11:20:15;15.30;14.60
32895;DHT22;19251;49.484;8.260;2023-12-29T11:25:18;15.50;14.50
32895;DHT22;19251;49.484;8.260;2023-12-29T11:30:20;15.40;14.60
32895;DHT22;19251;49.484;8.260;2023-12-29T11:45:44;15.60;14.70
32895;DHT22;19251;49.484;8.260;2023-12-29T11:50:47;15.60;14.70
32895;DHT22;19251;49.484;8.260;2023-12-29T11:55:50;15.80;14.70
32895;DHT22;19251;49.484;8.260;2023-12-29T12:00:52;15.80;14.40
32895;DHT22;19251;49.484;8.260;2023-12-29T12:05:55;15.90;14.20
32895;DHT22;19251;49.484;8.260;2023-12-29T12:21:48;16.10;13.40
32895;DHT22;19251;49.484;8.260;2023-12-29T12:26:51;16.00;13.40
32895;DHT22;19251;49.484;8.260;2023-12-29T12:31:54;16.00;13.10
32895;DHT22;19251;49.484;8.260;2023-12-29T12:36:56;16.10;13.20
32895;DHT22;19251;49.484;8.260;2023-12-29T12:42:01;16.10;13.10
32895;DHT22;19251;49.484;8.260;2023-12-29T12:47:07;16.20;13.10
32895;DHT22;19251;49.484;8.260;2023-12-29T13:02:15;16.40;12.50
32895;DHT22;19251;49.484;8.260;2023-12-29T13:07:18;16.40;12.60
32895;DHT22;19251;49.484;8.260;2023-12-29T13:12:21;16.40;12.40
32895;DHT22;19251;49.484;8.260;2023-12-29T13:17:23;16.40;12.60
32895;DHT22;19251;49.484;8.260;2023-12-29T13:22:25;16.40;12.70
32895;DHT22;19251;49.484;8.260;2023-12-29T13:27:30;16.40;14.10
32895;DHT22;19251;49.484;8.260;2023-12-29T13:32:32;16.30;12.90
32895;DHT22;19251;49.484;8.260;2023-12-29T13:37:37;16.30;12.90
32895;DHT22;19251;49.484;8.260;2023-12-29T13:42:45;16.20;13.10
32895;DHT22;19251;49.484;8.260;2023-12-29T13:47:49;16.40;13.30
32895;DHT22;19251;49.484;8.260;2023-12-29T13:52:51;16.40;13.30
32895;DHT22;19251;49.484;8.260;2023-12-29T13:57:54;16.40;13.10
32895;DHT22;19251;49.484;8.260;2023-12-29T14:03:01;16.40;12.90
32895;DHT22;19251;49.484;8.260;2023-12-29T14:08:08;16.40;13.20
32895;DHT22;19251;49.484;8.260;2023-12-29T14:13:14;16.30;13.30
32895;DHT22;19251;49.484;8.260;2023-12-29T14:23:19;16.20;13.00
32895;DHT22;19251;49.484;8.260;2023-12-29T14:28:22;16.00;13.10
32895;DHT22;19251;49.484;8.260;2023-12-29T14:33:24;16.00;13.40
32895;DHT22;19251;49.484;8.260;2023-12-29T14:38:26;15.90;13.70
32895;DHT22;19251;49.484;8.260;2023-12-29T14:43:28;15.80;13.80
32895;DHT22;19251;49.484;8.260;2023-12-29T14:48:31;15.70;13.90
32895;DHT22;19251;49.484;8.260;2023-12-29T14:58:36;15.60;14.10
32895;DHT22;19251;49.484;8.260;2023-12-29T15:03:38;15.60;14.20
32895;DHT22;19251;49.484;8.260;2023-12-29T15:08:41;15.50;14.30
32895;DHT22;19251;49.484;8.260;2023-12-29T15:13:43;15.60;14.30
32895;DHT22;19251;49.484;8.260;2023-12-29T15:18:45;15.30;14.20
32895;DHT22;19251;49.484;8.260;2023-12-29T15:23:47;15.20;14.30
32895;DHT22;19251;49.484;8.260;2023-12-29T15:28:49;15.10;14.40
32895;DHT22;19251;49.484;8.260;2023-12-29T15:33:52;15.00;14.40
32895;DHT22;19251;49.484;8.260;2023-12-29T15:38:57;14.90;14.50
32895;DHT22;19251;49.484;8.260;2023-12-29T15:44:00;14.80;14.60
32895;DHT22;19251;49.484;8.260;2023-12-29T15:49:02;14.70;14.70
32895;DHT22;19251;49.484;8.260;2023-12-29T15:54:06;14.60;14.80
32895;DHT22;19251;49.484;8.260;2023-12-29T15:59:08;14.50;14.90
32895;DHT22;19251;49.484;8.260;2023-12-29T16:04:10;14.50;15.10
32895;DHT22;19251;49.484;8.260;2023-12-29T16:09:13;14.40;15.10
32895;DHT22;19251;49.484;8.260;2023-12-29T16:14:16;14.40;15.30
32895;DHT22;19251;49.484;8.260;2023-12-29T16:24:26;14.30;15.40
32895;DHT22;19251;49.484;8.260;2023-12-29T16:29:29;14.40;15.50
32895;DHT22;19251;49.484;8.260;2023-12-29T16:34:32;14.40;15.50
32895;DHT22;19251;49.484;8.260;2023-12-29T16:39:35;14.40;15.50
32895;DHT22;19251;49.484;8.260;2023-12-29T16:44:37;14.40;15.50
32895;DHT22;19251;49.484;8.260;2023-12-29T16:49:39;14.40;15.40
32895;DHT22;19251;49.484;8.260;2023-12-29T16:54:41;14.40;15.40
32895;DHT22;19251;49.484;8.260;2023-12-29T16:59:43;14.40;15.40
32895;DHT22;19251;49.484;8.260;2023-12-29T17:04:45;14.40;15.40
32895;DHT22;19251;49.484;8.260;2023-12-29T17:09:48;14.40;15.40
32895;DHT22;19251;49.484;8.260;2023-12-29T17:14:50;14.40;15.40
32895;DHT22;19251;49.484;8.260;2023-12-29T17:19:52;14.40;15.30
32895;DHT22;19251;49.484;8.260;2023-12-29T17:24:55;14.40;15.40
32895;DHT22;19251;49.484;8.260;2023-12-29T17:29:57;14.40;15.40
32895;DHT22;19251;49.484;8.260;2023-12-29T17:34:59;14.40;15.40
32895;DHT22;19251;49.484;8.260;2023-12-29T17:50:11;14.40;15.60
32895;DHT22;19251;49.484;8.260;2023-12-29T17:55:15;14.40;15.60
32895;DHT22;19251;49.484;8.260;2023-12-29T18:00:18;14.40;15.70
32895;DHT22;19251;49.484;8.260;2023-12-29T18:05:20;14.30;15.60
32895;DHT22;19251;49.484;8.260;2023-12-29T18:10:23;14.40;15.80
32895;DHT22;19251;49.484;8.260;2023-12-29T18:15:25;14.30;15.70
32895;DHT22;19251;49.484;8.260;2023-12-29T18:20:33;14.40;15.90
32895;DHT22;19251;49.484;8.260;2023-12-29T18:25:35;14.30;15.90
32895;DHT22;19251;49.484;8.260;2023-12-29T18:30:37;14.30;16.00
32895;DHT22;19251;49.484;8.260;2023-12-29T18:35:39;14.30;16.00
32895;DHT22;19251;49.484;8.260;2023-12-29T18:40:41;14.30;16.00
32895;DHT22;19251;49.484;8.260;2023-12-29T18:45:44;14.30;16.00
32895;DHT22;19251;49.484;8.260;2023-12-29T18:50:46;14.30;16.00
32895;DHT22;19251;49.484;8.260;2023-12-29T18:55:48;14.30;16.00
32895;DHT22;19251;49.484;8.260;2023-12-29T19:00:50;14.30;15.90
32895;DHT22;19251;49.484;8.260;2023-12-29T19:05:56;14.30;15.90
32895;DHT22;19251;49.484;8.260;2023-12-29T19:10:58;14.30;15.90
32895;DHT22;19251;49.484;8.260;2023-12-29T19:16:00;14.20;15.90
32895;DHT22;19251;49.484;8.260;2023-12-29T19:21:04;14.30;16.00
32895;DHT22;19251;49.484;8.260;2023-12-29T19:26:06;14.30;16.00
32895;DHT22;19251;49.484;8.260;2023-12-29T19:31:09;14.30;16.00
32895;DHT22;19251;49.484;8.260;2023-12-29T19:36:14;14.20;16.00
32895;DHT22;19251;49.484;8.260;2023-12-29T19:41:19;14.30;16.10
32895;DHT22;19251;49.484;8.260;2023-12-29T19:46:26;14.20;16.10
32895;DHT22;19251;49.484;8.260;2023-12-29T19:56:30;14.20;16.00
32895;DHT22;19251;49.484;8.260;2023-12-29T20:01:33;14.20;16.20
32895;DHT22;19251;49.484;8.260;2023-12-29T20:06:45;14.20;16.20
32895;DHT22;19251;49.484;8.260;2023-12-29T20:11:48;14.30;16.50
32895;DHT22;19251;49.484;8.260;2023-12-29T20:16:51;14.20;16.30
32895;DHT22;19251;49.484;8.260;2023-12-29T20:21:53;14.20;16.40
32895;DHT22;19251;49.484;8.260;2023-12-29T20:26:55;14.20;16.40
32895;DHT22;19251;49.484;8.260;2023-12-29T20:31:57;14.30;16.50
32895;DHT22;19251;49.484;8.260;2023-12-29T20:42:02;14.20;16.40
32895;DHT22;19251;49.484;8.260;2023-12-29T20:47:04;14.30;16.40
32895;DHT22;19251;49.484;8.260;2023-12-29T20:52:09;14.20;16.20
32895;DHT22;19251;49.484;8.260;2023-12-29T20:57:11;14.30;16.30
32895;DHT22;19251;49.484;8.260;2023-12-29T21:07:21;14.30;16.50
32895;DHT22;19251;49.484;8.260;2023-12-29T21:12:23;14.30;16.40
32895;DHT22;19251;49.484;8.260;2023-12-29T21:17:25;14.20;16.40
32895;DHT22;19251;49.484;8.260;2023-12-29T21:27:30;14.30;16.50
32895;DHT22;19251;49.484;8.260;2023-12-29T21:37:39;14.30;16.30
32895;DHT22;19251;49.484;8.260;2023-12-29T21:42:42;14.30;16.30
32895;DHT22;19251;49.484;8.260;2023-12-29T21:47:44;14.30;16.10
32895;DHT22;19251;49.484;8.260;2023-12-29T21:52:48;14.30;16.00
32895;DHT22;19251;49.484;8.260;2023-12-29T21:57:50;14.40;16.20
32895;DHT22;19251;49.484;8.260;2023-12-29T22:02:52;14.40;16.60
32895;DHT22;19251;49.484;8.260;2023-12-29T22:07:54;14.40;16.60
32895;DHT22;19251;49.484;8.260;2023-12-29T22:12:57;14.30;16.50
32895;DHT22;19251;49.484;8.260;2023-12-29T22:18:00;14.20;16.40
32895;DHT22;19251;49.484;8.260;2023-12-29T22:23:02;14.20;16.60
32895;DHT22;19251;49.484;8.260;2023-12-29T22:28:05;14.10;16.80
32895;DHT22;19251;49.484;8.260;2023-12-29T22:33:09;14.10;17.10
32895;DHT22;19251;49.484;8.260;2023-12-29T22:38:12;14.10;17.20
32895;DHT22;19251;49.484;8.260;2023-12-29T22:43:14;14.10;17.40
32895;DHT22;19251;49.484;8.260;2023-12-29T22:48:16;14.00;17.40
32895;DHT22;19251;49.484;8.260;2023-12-29T22:53:18;14.00;17.60
32895;DHT22;19251;49.484;8.260;2023-12-29T22:58:21;14.00;17.70
32895;DHT22;19251;49.484;8.260;2023-12-29T23:03:24;14.00;17.90
32895;DHT22;19251;49.484;8.260;2023-12-29T23:08:26;14.00;18.00
32895;DHT22;19251;49.484;8.260;2023-12-29T23:13:28;14.00;18.10
32895;DHT22;19251;49.484;8.260;2023-12-29T23:18:30;13.90;18.20
32895;DHT22;19251;49.484;8.260;2023-12-29T23:23:33;13.90;18.50
32895;DHT22;19251;49.484;8.260;2023-12-29T23:28:35;13.80;18.60
32895;DHT22;19251;49.484;8.260;2023-12-29T23:33:37;13.80;18.90
32895;DHT22;19251;49.484;8.260;2023-12-29T23:38:39;13.70;19.10
32895;DHT22;19251;49.484;8.260;2023-12-29T23:43:41;13.70;19.60
32895;DHT22;19251;49.484;8.260;2023-12-29T23:48:50;13.60;19.80
32895;DHT22;19251;49.484;8.260;2023-12-29T23:53:52;13.60;20.10
32895;DHT22;19251;49.484;8.260;2023-12-29T23:58:54;13.60;20.20
